Time;durP1;ratioP1;P1;durP2;ratioP2;P2;SDS_P1;SDS_P2;PMS_P1;PMS_P2;Temp;Humidity;BMP_temperature;BMP_pressure;BME280_temperature;BME280_humidity;BME280_pressure;Samples;Min_cycle;Max_cycle;Signal;HPM_P1;HPM_P2
2021/10/05 00:01:43;;;;;;;2.53;2.20;;;10.40;99.90;;;;;;4974899;28;20326;-62
2021/10/05 00:04:09;;;;;;;3.63;2.07;;;10.40;99.90;;;;;;4974953;28;20677;-63
2021/10/05 00:06:36;;;;;;;2.80;2.17;;;10.40;1.00;;;;;;4975120;28;20271;-63
2021/10/05 00:09:03;;;;;;;2.70;1.97;;;10.40;1.00;;;;;;4975157;28;20232;-62
2021/10/05 00:11:30;;;;;;;2.33;1.90;;;10.30;99.90;;;;;;4975076;28;20629;-63
2021/10/05 00:13:58;;;;;;;2.23;2.03;;;10.30;99.90;;;;;;4973905;28;20205;-63
2021/10/05 00:16:24;;;;;;;3.10;2.27;;;10.30;1.00;;;;;;4974284;28;20208;-64
2021/10/05 00:18:51;;;;;;;6.27;2.93;;;10.30;1.00;;;;;;4974629;28;20229;-65
2021/10/05 00:21:18;;;;;;;2.87;2.20;;;10.30;99.90;;;;;;4974709;28;20228;-63
2021/10/05 00:23:45;;;;;;;2.83;2.03;;;10.30;99.90;;;;;;4974783;28;20211;-62
2021/10/05 00:26:12;;;;;;;4.90;2.20;;;10.30;99.90;;;;;;4974377;28;20204;-65
2021/10/05 00:28:39;;;;;;;2.90;2.30;;;10.30;1.00;;;;;;4974352;28;20232;-64
2021/10/05 00:31:07;;;;;;;4.73;2.37;;;10.30;1.00;;;;;;4974599;28;20258;-63
2021/10/05 00:33:33;;;;;;;3.37;2.20;;;10.30;1.00;;;;;;4974260;28;20243;-63
2021/10/05 00:36:00;;;;;;;5.47;2.10;;;10.30;1.00;;;;;;4974201;28;20283;-64
2021/10/05 00:38:27;;;;;;;2.67;2.00;;;10.30;1.00;;;;;;4974182;28;20729;-64
2021/10/05 00:40:54;;;;;;;2.10;1.90;;;10.30;1.00;;;;;;4974355;28;20676;-64
2021/10/05 00:43:20;;;;;;;2.23;2.03;;;10.40;99.90;;;;;;4974248;28;20630;-64
2021/10/05 00:45:47;;;;;;;3.53;1.87;;;10.30;99.90;;;;;;4974012;28;20216;-63
2021/10/05 00:48:15;;;;;;;2.00;1.80;;;10.40;99.90;;;;;;4974059;28;20212;-63
2021/10/05 00:50:41;;;;;;;3.83;2.07;;;10.40;99.90;;;;;;4974151;28;20616;-64
2021/10/05 00:53:08;;;;;;;3.03;2.10;;;10.40;99.90;;;;;;4974261;28;20284;-64
2021/10/05 00:55:37;;;;;;;2.60;2.20;;;10.40;99.90;;;;;;4973662;28;20608;-64
2021/10/05 00:58:04;;;;;;;4.60;2.23;;;10.40;99.90;;;;;;4974008;28;20673;-64
2021/10/05 01:00:31;;;;;;;4.13;2.13;;;10.40;99.90;;;;;;4973716;28;20224;-65
2021/10/05 01:02:58;;;;;;;3.03;2.33;;;10.40;99.90;;;;;;4973841;28;20673;-63
2021/10/05 01:05:26;;;;;;;4.20;2.27;;;10.40;99.90;;;;;;4973713;28;20258;-63
2021/10/05 01:07:53;;;;;;;2.70;2.17;;;10.40;99.90;;;;;;4973934;28;20215;-64
2021/10/05 01:10:20;;;;;;;3.33;2.17;;;10.40;99.90;;;;;;4973877;28;20228;-62
2021/10/05 01:12:48;;;;;;;2.43;2.10;;;10.40;99.90;;;;;;4974150;28;20219;-63
2021/10/05 01:15:15;;;;;;;2.57;1.97;;;10.40;99.90;;;;;;4973142;28;20212;-63
2021/10/05 01:17:41;;;;;;;3.53;1.93;;;10.50;99.90;;;;;;4973623;28;20219;-63
2021/10/05 01:20:10;;;;;;;2.67;1.97;;;10.50;1.00;;;;;;4973642;28;20236;-63
2021/10/05 01:22:38;;;;;;;2.30;1.87;;;10.50;99.90;;;;;;4973504;28;20232;-63
2021/10/05 01:25:06;;;;;;;3.30;1.83;;;10.50;99.90;;;;;;4973156;28;20208;-64
2021/10/05 01:27:41;;;;;;;3.10;1.97;;;10.50;32.70;;;;;;4973648;28;20283;-64
2021/10/05 01:30:08;;;;;;;2.27;1.87;;;10.50;1.00;;;;;;4973631;28;20228;-64
2021/10/05 01:32:35;;;;;;;2.27;2.07;;;10.50;99.90;;;;;;4973543;28;20205;-63
2021/10/05 01:35:02;;;;;;;2.77;1.90;;;10.50;95.30;;;;;;4973200;28;20634;-63
2021/10/05 01:37:28;;;;;;;2.47;1.80;;;10.50;99.90;;;;;;4973407;28;20220;-63
2021/10/05 01:39:56;;;;;;;2.97;2.03;;;10.50;99.90;;;;;;4973311;28;20664;-63
2021/10/05 01:42:23;;;;;;;5.90;2.30;;;10.50;99.90;;;;;;4973102;28;20228;-63
2021/10/05 01:44:51;;;;;;;2.87;1.87;;;10.50;99.50;;;;;;4973231;28;20219;-64
2021/10/05 01:47:18;;;;;;;2.57;1.90;;;10.50;99.90;;;;;;4973695;28;20208;-63
2021/10/05 01:49:44;;;;;;;2.20;2.00;;;10.50;99.90;;;;;;4973243;28;20282;-63
2021/10/05 01:52:11;;;;;;;2.03;1.80;;;10.50;99.90;;;;;;4973267;28;20212;-63
2021/10/05 01:54:38;;;;;;;2.30;2.10;;;10.50;99.90;;;;;;4972973;28;20208;-65
2021/10/05 01:57:06;;;;;;;3.17;2.00;;;10.50;1.00;;;;;;4973201;28;20259;-64
2021/10/05 01:59:33;;;;;;;2.10;1.80;;;10.50;1.00;;;;;;4973257;28;20236;-64
2021/10/05 02:02:00;;;;;;;5.40;2.10;;;10.50;1.00;;;;;;4973092;28;20228;-64
2021/10/05 02:04:26;;;;;;;4.20;2.10;;;10.50;44.50;;;;;;4973240;28;20216;-64
2021/10/05 02:06:53;;;;;;;2.67;2.00;;;10.50;1.00;;;;;;4972790;28;20263;-64
2021/10/05 02:09:20;;;;;;;3.90;2.23;;;10.40;1.00;;;;;;4972946;28;20286;-63
2021/10/05 02:11:47;;;;;;;3.07;1.93;;;10.40;1.00;;;;;;4973188;28;20208;-63
2021/10/05 02:14:15;;;;;;;2.27;1.70;;;10.50;1.00;;;;;;4973074;28;20208;-63
2021/10/05 02:16:42;;;;;;;4.47;1.90;;;10.50;48.90;;;;;;4972720;28;20212;-63
2021/10/05 02:19:09;;;;;;;2.63;2.00;;;10.40;99.90;;;;;;4972963;28;20287;-64
2021/10/05 02:21:36;;;;;;;3.33;1.90;;;10.40;99.90;;;;;;4972990;28;20322;-63
2021/10/05 02:26:48;;;;;;;2.93;2.00;;;10.40;99.90;;;;;;4972741;28;20230;-64
2021/10/05 02:29:16;;;;;;;2.97;2.00;;;10.40;99.90;;;;;;4973066;28;20278;-63
2021/10/05 02:31:43;;;;;;;2.70;1.83;;;10.40;1.00;;;;;;4972759;28;20260;-65
2021/10/05 02:34:10;;;;;;;2.57;2.10;;;10.40;1.00;;;;;;4972834;28;20259;-64
2021/10/05 02:36:36;;;;;;;2.90;1.97;;;10.40;1.00;;;;;;4972353;28;20252;-64
2021/10/05 02:39:04;;;;;;;2.30;1.83;;;10.40;1.00;;;;;;4975818;28;20286;-65
2021/10/05 02:41:30;;;;;;;4.37;2.10;;;10.40;1.00;;;;;;4976287;28;20624;-64
2021/10/05 02:43:57;;;;;;;2.37;1.90;;;10.40;99.90;;;;;;4976675;28;20213;-64
2021/10/05 02:46:25;;;;;;;1.80;1.70;;;10.40;99.90;;;;;;4976254;28;20208;-64
2021/10/05 02:48:52;;;;;;;2.57;2.00;;;10.40;99.90;;;;;;4976247;28;20290;-65
2021/10/05 02:51:18;;;;;;;3.33;2.00;;;10.40;99.90;;;;;;4976687;28;20208;-64
2021/10/05 02:53:45;;;;;;;3.03;2.10;;;10.40;99.90;;;;;;4976375;28;20205;-65
2021/10/05 02:56:13;;;;;;;2.00;1.80;;;10.40;1.00;;;;;;4975985;28;20208;-64
2021/10/05 02:58:39;;;;;;;4.20;2.00;;;10.40;1.00;;;;;;4976246;28;20232;-65
2021/10/05 03:01:06;;;;;;;2.90;2.00;;;10.40;1.00;;;;;;4976133;28;20217;-65
2021/10/05 03:03:34;;;;;;;4.87;2.00;;;10.40;1.00;;;;;;4976065;28;20204;-65
2021/10/05 03:06:01;;;;;;;5.30;2.43;;;10.40;11.30;;;;;;4976067;28;20275;-64
2021/10/05 03:08:29;;;;;;;4.27;2.00;;;10.40;81.70;;;;;;4975901;28;20224;-64
2021/10/05 03:10:56;;;;;;;3.20;2.53;;;10.40;38.60;;;;;;4976103;28;20204;-65
2021/10/05 03:13:23;;;;;;;3.00;1.90;;;10.40;99.90;;;;;;4976284;28;20291;-64
2021/10/05 03:15:49;;;;;;;4.80;2.23;;;10.40;99.90;;;;;;4975655;28;20216;-64
2021/10/05 03:18:16;;;;;;;2.57;2.07;;;10.40;99.90;;;;;;4975690;28;20725;-65
2021/10/05 03:20:44;;;;;;;4.43;2.30;;;10.40;99.90;;;;;;4975969;28;20270;-65
2021/10/05 03:23:11;;;;;;;3.63;2.50;;;10.40;1.00;;;;;;4975696;28;20287;-64
2021/10/05 03:25:37;;;;;;;3.00;2.30;;;10.40;1.00;;;;;;4975251;28;20212;-64
2021/10/05 03:28:04;;;;;;;2.70;2.23;;;10.40;1.00;;;;;;4975375;28;20212;-64
2021/10/05 03:30:31;;;;;;;2.53;2.00;;;10.40;1.00;;;;;;4975472;28;20211;-65
2021/10/05 03:32:58;;;;;;;2.60;2.40;;;10.40;1.00;;;;;;4975878;28;20208;-64
2021/10/05 03:35:25;;;;;;;5.20;2.60;;;10.40;1.00;;;;;;4975033;28;20697;-65
2021/10/05 03:37:53;;;;;;;2.93;2.70;;;10.40;99.90;;;;;;4975523;28;20212;-64
2021/10/05 03:40:20;;;;;;;4.97;2.73;;;10.50;99.90;;;;;;4975283;28;20788;-65
2021/10/05 03:42:47;;;;;;;3.63;2.40;;;10.50;99.90;;;;;;4975286;28;20229;-65
2021/10/05 03:45:13;;;;;;;2.43;2.10;;;10.40;99.90;;;;;;4975011;28;20212;-64
2021/10/05 03:47:40;;;;;;;7.33;2.63;;;10.50;74.70;;;;;;4975649;28;20208;-65
2021/10/05 03:50:10;;;;;;;3.10;2.40;;;10.50;55.00;;;;;;4975122;28;20651;-65
2021/10/05 03:52:37;;;;;;;8.93;7.07;;;10.40;63.80;;;;;;4975161;28;20212;-65
2021/10/05 03:55:06;;;;;;;5.83;3.67;;;10.40;99.90;;;;;;4975038;28;20765;-65
2021/10/05 03:57:33;;;;;;;2.60;2.40;;;10.40;1.00;;;;;;4975241;28;20213;-65
2021/10/05 04:00:00;;;;;;;3.17;2.50;;;10.40;1.00;;;;;;4975254;28;20451;-65
2021/10/05 04:02:26;;;;;;;3.10;2.63;;;10.30;1.00;;;;;;4975062;28;20231;-64
2021/10/05 04:04:53;;;;;;;2.70;2.50;;;10.30;99.90;;;;;;4974832;28;20212;-65
2021/10/05 04:07:20;;;;;;;4.50;2.63;;;10.30;99.90;;;;;;4974914;28;20744;-64
2021/10/05 04:09:47;;;;;;;3.33;3.00;;;10.30;99.90;;;;;;4974881;28;20652;-65
2021/10/05 04:12:15;;;;;;;3.20;2.53;;;10.20;99.90;;;;;;4974810;28;20263;-65
2021/10/05 04:14:41;;;;;;;4.67;2.73;;;10.30;99.90;;;;;;4974582;28;20632;-65
2021/10/05 04:17:08;;;;;;;4.70;2.40;;;10.20;99.90;;;;;;4975059;28;20232;-65
2021/10/05 04:19:35;;;;;;;5.00;2.70;;;10.20;99.90;;;;;;4975646;28;20305;-65
2021/10/05 04:22:01;;;;;;;3.57;2.60;;;10.20;99.90;;;;;;4993996;28;20290;-64
2021/10/05 04:24:28;;;;;;;2.53;2.33;;;10.20;1.00;;;;;;4994063;28;20619;-65
2021/10/05 04:26:55;;;;;;;5.63;3.37;;;10.20;1.00;;;;;;4993438;28;20568;-65
2021/10/05 04:29:23;;;;;;;2.80;2.57;;;10.20;1.00;;;;;;4993874;28;20235;-64
2021/10/05 04:31:50;;;;;;;3.13;2.83;;;10.20;1.00;;;;;;4993851;28;20258;-65
2021/10/05 04:34:17;;;;;;;3.13;2.83;;;10.10;1.00;;;;;;4993800;28;20207;-64
2021/10/05 04:36:43;;;;;;;4.53;3.07;;;10.10;1.00;;;;;;4993471;28;20204;-64
2021/10/05 04:39:10;;;;;;;4.07;2.97;;;10.10;9.80;;;;;;4993261;28;20274;-65
2021/10/05 04:41:37;;;;;;;4.73;3.30;;;10.10;50.80;;;;;;4993623;28;20277;-64
2021/10/05 04:44:04;;;;;;;4.23;3.60;;;10.10;74.60;;;;;;4993636;28;20211;-64
2021/10/05 04:46:33;;;;;;;4.20;3.43;;;10.10;99.90;;;;;;4993376;28;20211;-65
2021/10/05 04:48:59;;;;;;;6.33;3.70;;;10.00;99.90;;;;;;4993552;28;20231;-64
2021/10/05 04:51:26;;;;;;;12.30;4.93;;;10.10;99.90;;;;;;4993377;28;20207;-65
2021/10/05 04:53:53;;;;;;;5.17;3.80;;;10.00;99.90;;;;;;4993915;28;20211;-64
2021/10/05 04:56:19;;;;;;;4.40;4.00;;;10.10;99.90;;;;;;4993427;28;20203;-64
2021/10/05 04:58:46;;;;;;;5.23;4.70;;;10.10;99.90;;;;;;4993491;28;20228;-64
2021/10/05 05:01:12;;;;;;;5.27;4.50;;;10.10;99.90;;;;;;4993004;28;20203;-65
2021/10/05 05:03:40;;;;;;;6.83;5.17;;;10.00;99.90;;;;;;4993111;28;20258;-65
2021/10/05 05:06:07;;;;;;;6.07;4.67;;;10.10;99.90;;;;;;4973154;28;20220;-65
2021/10/05 05:08:35;;;;;;;6.50;5.47;;;10.10;99.90;;;;;;4973605;28;20232;-64
2021/10/05 05:11:02;;;;;;;6.17;5.50;;;10.10;99.90;;;;;;4972640;28;20779;-64
2021/10/05 05:13:29;;;;;;;7.13;4.97;;;10.10;99.90;;;;;;4973827;28;20200;-65
2021/10/05 05:15:55;;;;;;;10.43;5.50;;;10.10;99.90;;;;;;4973703;28;20208;-65
2021/10/05 05:18:23;;;;;;;8.00;4.90;;;10.10;99.90;;;;;;4973640;28;20286;-64
2021/10/05 05:20:51;;;;;;;7.90;5.50;;;10.10;99.90;;;;;;4973725;28;20219;-65
2021/10/05 05:23:17;;;;;;;7.80;4.80;;;10.10;99.90;;;;;;4972416;28;20235;-65
2021/10/05 05:25:44;;;;;;;9.33;5.30;;;10.10;99.90;;;;;;4972858;28;20259;-66
2021/10/05 05:28:11;;;;;;;6.03;5.23;;;10.10;99.90;;;;;;4973560;28;20204;-65
2021/10/05 05:30:37;;;;;;;6.30;5.70;;;10.10;99.90;;;;;;4973521;28;20263;-65
2021/10/05 05:33:04;;;;;;;6.03;5.10;;;10.20;99.90;;;;;;4972916;28;20215;-64
2021/10/05 05:35:31;;;;;;;8.87;4.67;;;10.20;99.90;;;;;;4972808;28;20219;-64
2021/10/05 05:37:59;;;;;;;6.00;4.80;;;10.20;99.90;;;;;;4973341;28;20215;-65
2021/10/05 05:40:26;;;;;;;6.17;5.27;;;10.20;99.90;;;;;;4973685;28;20586;-65
2021/10/05 05:42:52;;;;;;;6.23;4.93;;;10.20;99.90;;;;;;4973145;28;20732;-64
2021/10/05 05:45:19;;;;;;;5.33;4.53;;;10.20;99.90;;;;;;4972908;28;20220;-65
2021/10/05 05:47:46;;;;;;;5.57;4.83;;;10.30;99.90;;;;;;4973391;28;20223;-65
2021/10/05 05:50:12;;;;;;;7.67;4.97;;;10.30;99.90;;;;;;4972913;28;20771;-66
2021/10/05 05:52:39;;;;;;;5.67;4.90;;;10.30;99.90;;;;;;4973378;28;20208;-65
2021/10/05 05:55:08;;;;;;;6.27;4.77;;;10.30;99.90;;;;;;4973151;28;20631;-65
2021/10/05 05:57:35;;;;;;;5.17;4.60;;;10.30;99.90;;;;;;4973192;28;20302;-64
2021/10/05 06:00:02;;;;;;;6.80;4.70;;;10.40;99.90;;;;;;4973134;28;20228;-65
2021/10/05 06:02:29;;;;;;;5.83;4.50;;;10.40;99.90;;;;;;4972997;28;20224;-65
2021/10/05 06:04:55;;;;;;;6.30;4.97;;;10.40;99.90;;;;;;4972578;28;20620;-65
2021/10/05 06:07:22;;;;;;;5.47;4.93;;;10.40;99.90;;;;;;4973255;28;20254;-65
2021/10/05 06:09:48;;;;;;;5.10;4.60;;;10.50;99.90;;;;;;4973005;28;20224;-65
2021/10/05 06:12:19;;;;;;;7.07;5.00;;;10.50;99.90;;;;;;4975067;28;20204;-64
2021/10/05 06:14:46;;;;;;;4.90;4.40;;;10.60;86.40;;;;;;4976651;28;20243;-65
2021/10/05 06:17:13;;;;;;;7.40;4.50;;;10.60;12.50;;;;;;4976914;28;20205;-65
2021/10/05 06:19:40;;;;;;;5.20;4.30;;;10.60;13.90;;;;;;4977014;28;20228;-66
2021/10/05 06:22:07;;;;;;;4.80;4.30;;;10.60;10.40;;;;;;4976946;28;20213;-66
2021/10/05 06:24:33;;;;;;;4.53;4.07;;;10.70;1.00;;;;;;4976566;28;20673;-64
2021/10/05 06:27:00;;;;;;;5.27;4.07;;;10.70;1.00;;;;;;4977093;28;20341;-67
2021/10/05 06:29:28;;;;;;;4.37;3.93;;;10.70;1.00;;;;;;4976692;28;20708;-66
2021/10/05 06:31:55;;;;;;;6.40;4.47;;;10.70;1.00;;;;;;4976549;28;20239;-65
2021/10/05 06:34:22;;;;;;;5.10;4.30;;;10.80;1.00;;;;;;4976854;28;20208;-64
2021/10/05 06:36:48;;;;;;;5.03;4.53;;;10.80;99.90;;;;;;4976296;28;20209;-65
2021/10/05 06:39:15;;;;;;;4.90;3.93;;;10.90;99.90;;;;;;4976766;28;20579;-65
2021/10/05 06:41:42;;;;;;;4.90;4.03;;;10.90;1.00;;;;;;4976462;28;20227;-64
2021/10/05 06:44:08;;;;;;;4.70;3.77;;;11.00;99.90;;;;;;4976281;28;20224;-65
2021/10/05 06:46:38;;;;;;;5.70;4.03;;;11.10;1.00;;;;;;4976383;28;20274;-65
2021/10/05 06:49:05;;;;;;;4.77;3.80;;;11.10;1.00;;;;;;4976399;28;20226;-66
2021/10/05 06:51:31;;;;;;;4.37;3.40;;;11.20;1.00;;;;;;4976322;28;20212;-66
2021/10/05 06:53:58;;;;;;;4.73;3.83;;;11.30;1.00;;;;;;4976219;28;20271;-65
2021/10/05 06:56:25;;;;;;;5.30;3.83;;;11.30;79.00;;;;;;4976014;28;20208;-65
2021/10/05 06:58:52;;;;;;;4.23;3.40;;;11.40;1.00;;;;;;4975855;28;20728;-66
2021/10/05 07:01:19;;;;;;;5.00;4.00;;;11.50;19.90;;;;;;4976217;28;20729;-66
2021/10/05 07:03:47;;;;;;;4.37;3.67;;;11.50;1.00;;;;;;4976081;28;20709;-66
2021/10/05 07:06:13;;;;;;;4.37;3.53;;;11.60;1.00;;;;;;4975844;28;20219;-66
2021/10/05 07:08:41;;;;;;;3.97;3.33;;;11.70;99.90;;;;;;4976118;28;20243;-66
2021/10/05 07:11:08;;;;;;;4.53;3.17;;;11.70;1.00;;;;;;4976021;28;20213;-65
2021/10/05 07:13:34;;;;;;;6.30;3.37;;;11.70;1.00;;;;;;4976053;28;20208;-66
2021/10/05 07:16:01;;;;;;;3.47;2.90;;;11.80;99.90;;;;;;4975598;28;20262;-65
2021/10/05 07:18:32;;;;;;;3.47;2.80;;;11.80;99.90;;;;;;4975794;28;20235;-66
2021/10/05 07:21:00;;;;;;;2.77;2.27;;;11.90;1.00;;;;;;4975858;28;20263;-65
2021/10/05 07:23:27;;;;;;;4.77;2.50;;;11.90;1.00;;;;;;4975158;28;20273;-65
2021/10/05 07:25:54;;;;;;;2.37;2.00;;;12.00;1.00;;;;;;4975297;28;20213;-66
2021/10/05 07:28:20;;;;;;;3.50;2.70;;;12.00;1.00;;;;;;4975779;28;20214;-65
2021/10/05 07:30:47;;;;;;;2.93;2.50;;;12.10;99.90;;;;;;4975836;28;20212;-65
2021/10/05 07:33:15;;;;;;;2.50;2.30;;;12.10;99.90;;;;;;4975573;28;20263;-66
2021/10/05 07:35:42;;;;;;;2.67;2.03;;;12.10;1.00;;;;;;4975501;28;20270;-66
2021/10/05 07:38:10;;;;;;;2.93;2.50;;;12.20;1.00;;;;;;4975416;28;20622;-66
2021/10/05 07:40:37;;;;;;;2.50;2.10;;;12.30;99.90;;;;;;4975267;28;20210;-66
2021/10/05 07:43:04;;;;;;;2.93;2.40;;;12.30;99.90;;;;;;4975461;28;20228;-66
2021/10/05 07:45:31;;;;;;;2.40;2.00;;;12.30;99.90;;;;;;4975185;28;20216;-66
2021/10/05 07:47:58;;;;;;;4.07;2.30;;;12.40;99.90;;;;;;4975471;28;20294;-66
2021/10/05 07:50:26;;;;;;;3.53;2.13;;;12.40;1.00;;;;;;4975303;28;20235;-66
2021/10/05 07:52:53;;;;;;;3.30;1.90;;;12.30;1.00;;;;;;4975167;28;20733;-66
2021/10/05 07:55:21;;;;;;;2.37;1.90;;;12.30;99.90;;;;;;4975088;28;20212;-66
2021/10/05 07:57:48;;;;;;;3.43;2.30;;;12.30;99.90;;;;;;4975164;28;20210;-65
2021/10/05 08:00:16;;;;;;;3.13;2.00;;;12.30;99.90;;;;;;4974699;28;20234;-66
2021/10/05 08:02:44;;;;;;;2.50;2.10;;;12.40;99.90;;;;;;4974927;28;20207;-65
2021/10/05 08:05:12;;;;;;;2.70;2.43;;;12.50;1.00;;;;;;4974485;28;20861;-66
2021/10/05 08:07:39;;;;;;;3.83;2.27;;;12.50;1.00;;;;;;4974922;28;20671;-66
2021/10/05 08:10:07;;;;;;;4.53;2.10;;;12.60;1.00;;;;;;4974815;28;20365;-66
2021/10/05 08:12:36;;;;;;;2.33;2.13;;;12.60;99.90;;;;;;4974782;28;20877;-66
2021/10/05 08:15:03;;;;;;;5.03;2.30;;;12.60;99.90;;;;;;4974287;28;20252;-65
2021/10/05 08:17:30;;;;;;;4.10;2.30;;;12.50;99.90;;;;;;4974707;28;20218;-66
2021/10/05 08:19:57;;;;;;;2.70;2.17;;;12.50;99.90;;;;;;4974894;28;20238;-66
2021/10/05 08:22:24;;;;;;;3.53;2.20;;;12.50;1.00;;;;;;4974491;28;20297;-67
2021/10/05 08:24:50;;;;;;;2.37;2.00;;;12.50;1.00;;;;;;4974686;28;20240;-63
2021/10/05 08:27:17;;;;;;;4.00;2.43;;;12.50;1.00;;;;;;4974746;28;20263;-65
2021/10/05 08:29:47;;;;;;;2.13;1.90;;;12.60;99.90;;;;;;4974738;28;20227;-64
2021/10/05 08:32:14;;;;;;;3.07;2.33;;;12.60;1.00;;;;;;4974578;28;20246;-64
2021/10/05 08:34:42;;;;;;;2.67;1.83;;;12.70;99.90;;;;;;4973541;28;20616;-64
2021/10/05 08:37:09;;;;;;;3.20;2.23;;;12.80;99.90;;;;;;4974130;28;20708;-64
2021/10/05 08:39:36;;;;;;;2.53;2.00;;;12.80;99.90;;;;;;4975119;28;20232;-66
2021/10/05 08:42:03;;;;;;;3.90;2.30;;;12.90;13.60;;;;;;4974520;28;20223;-65
2021/10/05 08:44:29;;;;;;;2.37;2.10;;;13.00;1.00;;;;;;4973967;28;20746;-64
2021/10/05 08:46:57;;;;;;;2.37;2.13;;;13.00;1.00;;;;;;4974130;28;20209;-64
2021/10/05 08:49:25;;;;;;;2.30;2.10;;;13.00;1.00;;;;;;4974116;28;20653;-65
2021/10/05 08:51:53;;;;;;;2.10;1.90;;;13.10;99.90;;;;;;4974240;28;20216;-64
2021/10/05 08:54:20;;;;;;;2.33;2.03;;;13.10;1.00;;;;;;4974259;28;20270;-65
2021/10/05 08:56:47;;;;;;;1.83;1.73;;;13.20;1.00;;;;;;4973757;28;20209;-65
2021/10/05 08:59:15;;;;;;;1.97;1.70;;;13.30;1.00;;;;;;4973972;28;20638;-65
2021/10/05 09:01:42;;;;;;;2.03;1.83;;;13.40;1.00;;;;;;4973763;28;20215;-65
2021/10/05 09:04:10;;;;;;;2.20;1.93;;;13.60;99.90;;;;;;4974039;28;20233;-64
2021/10/05 09:06:38;;;;;;;2.80;1.93;;;13.70;99.90;;;;;;4973598;28;20211;-64
2021/10/05 09:09:05;;;;;;;2.30;1.70;;;13.60;99.90;;;;;;4973926;28;20232;-64
2021/10/05 09:11:39;;;;;;;2.67;1.70;;;13.60;99.90;;;;;;4973860;28;20618;-64
2021/10/05 09:14:07;;;;;;;2.70;1.50;;;13.60;99.90;;;;;;4974036;28;20259;-65
2021/10/05 09:16:34;;;;;;;2.13;1.50;;;13.70;99.90;;;;;;4973208;28;20208;-65
2021/10/05 09:19:02;;;;;;;2.53;1.40;;;13.70;55.60;;;;;;4973669;28;20412;-65
2021/10/05 09:21:32;;;;;;;1.70;1.60;;;13.70;51.00;;;;;;4973860;28;20212;-65
2021/10/05 09:24:01;;;;;;;2.10;1.60;;;13.70;99.90;;;;;;4973548;28;20228;-64
2021/10/05 09:26:42;;;;;;;2.17;1.50;;;13.80;85.00;;;;;;4973391;28;20208;-63
2021/10/05 09:29:10;;;;;;;1.70;1.50;;;13.80;45.20;;;;;;4974030;28;20631;-65
2021/10/05 09:31:52;;;;;;;1.43;1.33;;;13.90;57.90;;;;;;4973233;28;20212;-65
2021/10/05 09:34:21;;;;;;;1.70;1.33;;;14.20;31.90;;;;;;4973589;28;20200;-65
2021/10/05 09:36:49;;;;;;;1.90;1.33;;;14.30;1.00;;;;;;4973000;28;20612;-65
2021/10/05 09:39:16;;;;;;;4.97;1.50;;;14.30;1.00;;;;;;4973192;28;20708;-64
2021/10/05 09:41:53;;;;;;;5.13;1.33;;;14.30;1.00;;;;;;4973186;28;20220;-65
2021/10/05 09:44:26;;;;;;;2.10;1.40;;;14.30;1.00;;;;;;4973251;28;20228;-65
2021/10/05 09:46:53;;;;;;;1.77;1.40;;;14.30;1.00;;;;;;4972756;28;20208;-65
2021/10/05 09:49:20;;;;;;;1.87;1.50;;;14.40;1.00;;;;;;4973292;28;20232;-65
2021/10/05 09:51:58;;;;;;;1.83;1.40;;;14.40;1.00;;;;;;4972996;28;20204;-65
2021/10/05 09:54:26;;;;;;;2.00;1.40;;;14.50;1.00;;;;;;4973399;28;20248;-65
2021/10/05 09:56:54;;;;;;;1.30;1.00;;;14.60;1.00;;;;;;4972912;28;20212;-65
2021/10/05 09:59:21;;;;;;;2.80;1.23;;;14.80;1.00;;;;;;4973132;28;20310;-64
2021/10/05 10:01:48;;;;;;;2.03;1.00;;;14.90;1.00;;;;;;4973099;28;20255;-65
2021/10/05 10:04:15;;;;;;;3.77;1.13;;;14.90;1.00;;;;;;4972797;28;20649;-65
2021/10/05 10:06:42;;;;;;;1.00;0.87;;;15.10;1.00;;;;;;4973232;28;20204;-65
2021/10/05 10:09:11;;;;;;;1.33;1.10;;;15.20;1.00;;;;;;4973005;28;20236;-65
2021/10/05 10:11:37;;;;;;;1.70;0.70;;;15.30;1.00;;;;;;4973449;28;20212;-65
2021/10/05 10:14:04;;;;;;;1.10;0.83;;;15.40;1.00;;;;;;4972980;28;20628;-65
2021/10/05 10:16:35;;;;;;;1.83;0.60;;;15.60;1.00;;;;;;4972659;28;20263;-65
2021/10/05 10:19:02;;;;;;;3.10;1.30;;;15.60;1.00;;;;;;4972904;28;20242;-65
2021/10/05 10:21:32;;;;;;;1.30;0.70;;;15.70;1.00;;;;;;4973182;28;20295;-64
2021/10/05 10:24:13;;;;;;;2.27;0.70;;;15.50;1.00;;;;;;4972907;28;20251;-65
2021/10/05 10:26:44;;;;;;;2.50;0.80;;;15.40;1.00;;;;;;4972481;28;20209;-65
2021/10/05 10:29:13;;;;;;;1.47;0.90;;;15.40;1.00;;;;;;4972715;28;20634;-65
2021/10/05 10:31:41;;;;;;;1.77;1.10;;;15.60;1.00;;;;;;4972797;28;20724;-65
2021/10/05 10:34:19;;;;;;;2.80;0.73;;;15.60;1.00;;;;;;4972997;28;20208;-65
2021/10/05 10:36:46;;;;;;;0.90;0.80;;;15.70;1.00;;;;;;4972015;28;20643;-65
2021/10/05 10:39:17;;;;;;;2.00;0.80;;;15.80;1.00;;;;;;4972903;28;20236;-65
2021/10/05 10:41:46;;;;;;;2.43;0.70;;;16.00;1.00;;;;;;4972539;28;20220;-65
2021/10/05 10:44:20;;;;;;;0.90;0.77;;;16.20;1.00;;;;;;4972773;28;20232;-65
2021/10/05 10:46:47;;;;;;;1.80;0.80;;;16.30;1.00;;;;;;4972316;28;20208;-65
2021/10/05 10:49:15;;;;;;;1.27;0.70;;;16.40;1.00;;;;;;4972560;28;20283;-65
2021/10/05 10:51:44;;;;;;;5.40;1.23;;;16.40;1.00;;;;;;4972690;28;20208;-65
2021/10/05 10:54:17;;;;;;;2.30;0.77;;;16.60;1.00;;;;;;4972692;28;20200;-65
2021/10/05 10:56:45;;;;;;;1.20;0.60;;;16.60;1.00;;;;;;4972338;28;20677;-65
2021/10/05 10:59:13;;;;;;;1.60;0.80;;;16.70;1.00;;;;;;4973160;28;20232;-65
2021/10/05 11:01:43;;;;;;;1.27;0.83;;;16.80;1.00;;;;;;4969955;28;20946;-65
2021/10/05 11:04:11;;;;;;;2.23;0.80;;;16.90;1.00;;;;;;4976046;28;20319;-64
2021/10/05 11:06:38;;;;;;;1.57;0.87;;;17.00;1.00;;;;;;4975703;28;20212;-65
2021/10/05 11:09:07;;;;;;;3.33;0.80;;;16.90;1.00;;;;;;4975888;28;20579;-65
2021/10/05 11:11:37;;;;;;;2.20;1.10;;;17.00;1.00;;;;;;4976141;28;20247;-65
2021/10/05 11:14:06;;;;;;;2.93;0.90;;;17.00;1.00;;;;;;4975952;28;20633;-65
2021/10/05 11:16:35;;;;;;;1.90;0.70;;;17.10;1.00;;;;;;4975393;28;20239;-65
2021/10/05 11:19:10;;;;;;;2.17;0.90;;;16.90;1.00;;;;;;4975957;28;20228;-65
2021/10/05 11:21:40;;;;;;;1.90;0.80;;;16.90;1.00;;;;;;4975670;28;20208;-64
2021/10/05 11:24:07;;;;;;;3.47;0.90;;;17.00;1.00;;;;;;4975874;28;20253;-65
2021/10/05 11:26:37;;;;;;;2.77;0.70;;;17.00;1.00;;;;;;4975476;28;20286;-65
2021/10/05 11:29:04;;;;;;;1.30;0.80;;;16.90;1.00;;;;;;4975664;28;20236;-65
2021/10/05 11:31:42;;;;;;;1.87;0.90;;;17.00;1.00;;;;;;4975347;28;20231;-65
2021/10/05 11:34:09;;;;;;;2.20;0.80;;;17.00;1.00;;;;;;4975513;28;20235;-65
2021/10/05 11:36:36;;;;;;;2.50;0.97;;;17.20;1.00;;;;;;4975294;28;20267;-65
2021/10/05 11:39:05;;;;;;;1.63;0.70;;;17.20;1.00;;;;;;4975556;28;20283;-65
2021/10/05 11:41:41;;;;;;;2.00;0.70;;;17.20;1.00;;;;;;4975591;28;20360;-65
2021/10/05 11:44:15;;;;;;;1.73;0.70;;;17.30;1.00;;;;;;4975198;28;20302;-65
2021/10/05 11:46:52;;;;;;;2.93;1.10;;;17.40;1.00;;;;;;4975186;28;20669;-64
2021/10/05 11:49:19;;;;;;;3.60;0.70;;;17.40;1.00;;;;;;4975317;28;20232;-64
2021/10/05 11:51:46;;;;;;;1.23;0.77;;;17.40;99.90;;;;;;4975329;28;20303;-64
2021/10/05 11:54:18;;;;;;;2.97;0.60;;;17.50;99.90;;;;;;4975380;28;20262;-64
2021/10/05 11:56:47;;;;;;;2.40;0.80;;;17.70;1.00;;;;;;4974813;28;20315;-65
2021/10/05 11:59:24;;;;;;;2.13;0.80;;;17.70;99.90;;;;;;4975172;28;20232;-64
2021/10/05 12:01:56;;;;;;;5.70;0.80;;;17.80;1.00;;;;;;4975246;28;20302;-65
2021/10/05 12:04:23;;;;;;;2.23;0.90;;;17.90;99.90;;;;;;4975155;28;20590;-64
2021/10/05 12:06:52;;;;;;;2.43;0.70;;;17.70;99.90;;;;;;4974639;28;20270;-64
2021/10/05 12:09:24;;;;;;;1.57;0.80;;;17.70;99.90;;;;;;4974731;28;20228;-64
2021/10/05 12:11:57;;;;;;;1.83;0.60;;;17.70;99.90;;;;;;4974922;28;20208;-65
2021/10/05 12:14:29;;;;;;;2.43;0.73;;;17.70;99.90;;;;;;4975057;28;20215;-65
2021/10/05 12:16:58;;;;;;;2.80;0.83;;;17.70;99.90;;;;;;4974684;28;20219;-65
2021/10/05 12:19:26;;;;;;;1.50;0.80;;;17.70;99.90;;;;;;4974725;28;20232;-65
2021/10/05 12:21:53;;;;;;;1.57;0.70;;;17.80;99.90;;;;;;4974510;28;20274;-65
2021/10/05 12:24:20;;;;;;;2.10;0.50;;;17.80;99.90;;;;;;4974810;28;20224;-65
2021/10/05 12:26:52;;;;;;;1.77;0.70;;;17.90;99.90;;;;;;4974406;28;20213;-65
2021/10/05 12:29:20;;;;;;;1.90;0.60;;;17.80;99.90;;;;;;4974468;28;20286;-65
2021/10/05 12:31:58;;;;;;;4.93;0.90;;;17.90;99.90;;;;;;4974509;28;20695;-65
2021/10/05 12:34:35;;;;;;;2.97;0.90;;;17.80;99.90;;;;;;4974297;28;20278;-65
2021/10/05 12:37:05;;;;;;;3.57;0.90;;;17.60;99.90;;;;;;4974714;28;20267;-65
2021/10/05 12:39:32;;;;;;;2.60;0.70;;;17.50;99.90;;;;;;4974394;28;20587;-65
2021/10/05 12:42:02;;;;;;;1.83;0.80;;;17.40;99.90;;;;;;4974349;28;20220;-65
2021/10/05 12:44:32;;;;;;;1.83;0.90;;;17.30;99.90;;;;;;4974155;28;20232;-65
2021/10/05 12:47:01;;;;;;;1.73;0.80;;;17.40;99.90;;;;;;4974216;28;20212;-65
2021/10/05 12:49:28;;;;;;;2.07;0.90;;;17.50;99.90;;;;;;4974103;28;20225;-65
2021/10/05 12:51:56;;;;;;;2.17;0.93;;;17.70;99.90;;;;;;4974182;28;20212;-65
2021/10/05 12:54:24;;;;;;;1.83;0.90;;;17.90;99.90;;;;;;4974301;28;20205;-64
2021/10/05 12:56:51;;;;;;;3.43;0.90;;;18.20;99.90;;;;;;4973954;28;20212;-64